weather June 13, 2001 (UTC)

@

2001/06/13 14:50 UTC

BGBW 131450Z 25010KT 9999 FEW050 12/07 Q1020

2001/06/13 15:00 UTC

BIKF 24009KT 9999 FEW014TCU SCT180 12/04 Q1023


Ads by TOK2